Time;durP1;ratioP1;P1;durP2;ratioP2;P2;SDS_P1;SDS_P2;PMS_P1;PMS_P2;Temp;Humidity;BMP_temperature;BMP_pressure;BME280_temperature;BME280_humidity;BME280_pressure;Samples;Min_cycle;Max_cycle;Signal;HPM_P1;HPM_P2
2023/04/28 00:01:08;;;;;;;6.77;5.23;;;;;;;;;;5012160;28;20445;-93
2023/04/28 00:03:34;;;;;;;11.20;6.47;;;;;;;;;;4996649;28;21035;-94
2023/04/28 00:06:00;;;;;;;5.80;5.20;;;;;;;;;;4995484;28;20428;-91
2023/04/28 00:08:27;;;;;;;5.70;4.53;;;;;;;;;;5002070;28;20437;-92
2023/04/28 00:10:53;;;;;;;7.80;4.27;;;;;;;;;;4987936;28;20499;-92
2023/04/28 00:13:19;;;;;;;6.30;4.70;;;;;;;;;;4994366;28;20421;-92
2023/04/28 00:15:46;;;;;;;7.43;4.80;;;;;;;;;;4994482;28;20487;-91
2023/04/28 00:18:12;;;;;;;6.70;4.53;;;;;;;;;;4995056;28;21053;-93
2023/04/28 00:20:38;;;;;;;6.83;4.07;;;;;;;;;;4994623;28;20557;-93
2023/04/28 00:23:05;;;;;;;5.07;3.93;;;;;;;;;;5015087;28;20477;-91
2023/04/28 00:25:31;;;;;;;6.10;4.17;;;;;;;;;;4977063;28;20429;-93
2023/04/28 00:27:57;;;;;;;6.60;4.43;;;;;;;;;;4994641;28;20421;-93
2023/04/28 00:30:24;;;;;;;7.87;3.80;;;;;;;;;;4969125;28;20418;-90
2023/04/28 00:32:52;;;;;;;5.30;4.50;;;;;;;;;;4981219;28;20528;-93
2023/04/28 00:35:18;;;;;;;5.77;4.00;;;;;;;;;;4990464;28;20451;-92
2023/04/28 00:37:44;;;;;;;7.20;3.70;;;;;;;;;;4983115;28;20582;-92
2023/04/28 00:40:11;;;;;;;4.20;3.80;;;;;;;;;;4986746;28;20468;-93
2023/04/28 00:42:37;;;;;;;5.57;3.30;;;;;;;;;;4980188;28;20458;-94
2023/04/28 00:45:05;;;;;;;7.67;4.17;;;;;;;;;;4981062;28;20957;-93
2023/04/28 00:47:35;;;;;;;6.27;3.30;;;;;;;;;;4999065;28;20419;-93
2023/04/28 00:50:01;;;;;;;3.67;3.27;;;;;;;;;;5007715;28;20464;-93
2023/04/28 00:52:27;;;;;;;7.57;4.23;;;;;;;;;;4999086;28;22994;-94
2023/04/28 00:54:53;;;;;;;5.23;3.40;;;;;;;;;;4986594;28;20433;-91
2023/04/28 00:57:19;;;;;;;3.77;3.37;;;;;;;;;;4984701;28;20428;-92
2023/04/28 00:59:45;;;;;;;4.17;3.37;;;;;;;;;;5003309;28;20795;-93
2023/04/28 01:02:17;;;;;;;6.30;3.37;;;;;;;;;;4977005;28;20462;-91
2023/04/28 01:04:43;;;;;;;4.83;3.70;;;;;;;;;;5002603;28;20465;-94
2023/04/28 01:07:09;;;;;;;6.57;3.50;;;;;;;;;;5001516;28;20936;-93
2023/04/28 01:09:38;;;;;;;5.43;3.37;;;;;;;;;;5014489;28;20476;-92
2023/04/28 01:12:04;;;;;;;4.20;3.27;;;;;;;;;;4985638;28;20476;-92
2023/04/28 01:14:31;;;;;;;3.67;3.20;;;;;;;;;;5006783;28;20464;-93
2023/04/28 01:16:57;;;;;;;6.50;3.37;;;;;;;;;;5003768;28;20884;-93
2023/04/28 01:19:23;;;;;;;5.13;3.50;;;;;;;;;;4997049;28;20428;-93
2023/04/28 01:21:49;;;;;;;4.50;3.27;;;;;;;;;;4991237;28;20435;-92
2023/04/28 01:24:16;;;;;;;4.23;3.57;;;;;;;;;;4992858;28;20434;-93
2023/04/28 01:26:42;;;;;;;4.00;3.13;;;;;;;;;;5009279;28;20508;-92
2023/04/28 01:29:07;;;;;;;3.30;3.00;;;;;;;;;;4994230;28;20519;-93
2023/04/28 01:31:34;;;;;;;7.10;3.80;;;;;;;;;;4977849;28;20524;-94
2023/04/28 01:34:00;;;;;;;4.67;3.47;;;;;;;;;;4980016;28;20481;-92
2023/04/28 01:36:27;;;;;;;7.10;3.80;;;;;;;;;;5019604;28;20428;-92
2023/04/28 01:38:53;;;;;;;3.60;3.20;;;;;;;;;;5000086;28;20464;-90
2023/04/28 01:41:20;;;;;;;4.60;3.27;;;;;;;;;;4996890;28;20522;-93
2023/04/28 01:43:46;;;;;;;5.33;3.00;;;;;;;;;;4975562;28;20529;-93
2023/04/28 01:46:12;;;;;;;7.37;3.53;;;;;;;;;;4993187;28;20447;-92
2023/04/28 01:48:38;;;;;;;5.27;3.30;;;;;;;;;;5002287;28;20429;-92
2023/04/28 01:51:04;;;;;;;8.10;3.53;;;;;;;;;;5002276;28;20487;-92
2023/04/28 01:53:30;;;;;;;6.17;2.83;;;;;;;;;;4982861;28;20431;-93
2023/04/28 01:55:57;;;;;;;6.03;3.47;;;;;;;;;;4984102;28;20437;-93
2023/04/28 01:58:23;;;;;;;6.23;3.20;;;;;;;;;;4983187;28;21730;-93
2023/04/28 02:00:49;;;;;;;3.73;2.80;;;;;;;;;;4989137;28;20963;-94
2023/04/28 02:03:15;;;;;;;3.47;3.10;;;;;;;;;;4993599;28;20468;-93
2023/04/28 02:05:41;;;;;;;3.43;2.43;;;;;;;;;;4991684;28;20518;-94
2023/04/28 02:08:07;;;;;;;3.20;2.40;;;;;;;;;;4977713;28;20480;-92
2023/04/28 02:10:33;;;;;;;2.67;2.43;;;;;;;;;;4995349;28;20424;-93
2023/04/28 02:12:59;;;;;;;4.03;2.70;;;;;;;;;;4991072;28;20475;-94
2023/04/28 02:15:25;;;;;;;4.73;2.63;;;;;;;;;;4988341;28;20449;-93
2023/04/28 02:17:51;;;;;;;4.43;2.60;;;;;;;;;;5008458;28;20444;-93
2023/04/28 02:20:17;;;;;;;4.70;2.90;;;;;;;;;;4979213;28;20460;-93
2023/04/28 02:22:43;;;;;;;3.93;2.77;;;;;;;;;;4997153;28;20560;-93
2023/04/28 02:25:10;;;;;;;4.47;2.60;;;;;;;;;;5001303;28;20461;-93
2023/04/28 02:27:35;;;;;;;3.50;2.27;;;;;;;;;;4994127;28;20426;-93
2023/04/28 02:30:02;;;;;;;3.97;3.10;;;;;;;;;;4996667;28;20471;-94
2023/04/28 02:32:28;;;;;;;3.73;3.07;;;;;;;;;;5011929;28;20483;-94
2023/04/28 02:34:55;;;;;;;4.13;2.57;;;;;;;;;;4983346;28;20430;-93
2023/04/28 02:37:21;;;;;;;7.97;2.67;;;;;;;;;;4999462;28;20490;-93
2023/04/28 02:39:47;;;;;;;3.43;2.60;;;;;;;;;;4998470;28;20457;-91
2023/04/28 02:42:13;;;;;;;3.13;2.33;;;;;;;;;;4994909;28;20472;-93
2023/04/28 02:44:39;;;;;;;3.53;2.83;;;;;;;;;;4995095;28;20457;-93
2023/04/28 02:47:05;;;;;;;3.50;2.90;;;;;;;;;;4993489;28;20494;-93
2023/04/28 02:49:31;;;;;;;5.03;2.50;;;;;;;;;;5008099;28;20421;-94
2023/04/28 02:51:57;;;;;;;5.03;2.80;;;;;;;;;;4995523;28;20508;-94
2023/04/28 02:54:26;;;;;;;3.43;2.67;;;;;;;;;;4978133;28;20421;-94
2023/04/28 02:56:53;;;;;;;2.80;2.40;;;;;;;;;;4978569;28;20421;-93
2023/04/28 02:59:20;;;;;;;3.70;2.80;;;;;;;;;;4991353;28;20440;-93
2023/04/28 03:01:46;;;;;;;4.63;2.30;;;;;;;;;;4976973;28;20421;-94
2023/04/28 03:04:12;;;;;;;3.37;2.93;;;;;;;;;;4991757;28;20559;-94
2023/04/28 03:06:38;;;;;;;4.80;2.97;;;;;;;;;;4977572;28;20436;-92
2023/04/28 03:09:05;;;;;;;12.80;8.77;;;;;;;;;;4996531;28;20425;-93
2023/04/28 03:11:31;;;;;;;3.93;3.50;;;;;;;;;;4975280;28;20436;-94
2023/04/28 03:13:57;;;;;;;5.23;2.53;;;;;;;;;;4974230;28;20430;-93
2023/04/28 03:16:23;;;;;;;3.73;3.13;;;;;;;;;;4997957;28;20483;-93
2023/04/28 03:18:49;;;;;;;4.00;2.97;;;;;;;;;;4997163;28;20452;-93
2023/04/28 03:21:15;;;;;;;4.40;3.57;;;;;;;;;;4987090;28;20803;-92
2023/04/28 03:23:41;;;;;;;4.40;3.37;;;;;;;;;;4979213;28;20543;-93
2023/04/28 03:26:07;;;;;;;6.50;2.37;;;;;;;;;;4979626;28;20428;-94
2023/04/28 03:28:33;;;;;;;4.30;2.67;;;;;;;;;;4988072;28;20455;-93
2023/04/28 03:30:59;;;;;;;5.37;2.53;;;;;;;;;;4979851;28;21024;-93
2023/04/28 03:33:25;;;;;;;6.40;2.80;;;;;;;;;;4989221;28;20414;-93
2023/04/28 03:35:52;;;;;;;2.77;2.40;;;;;;;;;;4973218;28;20496;-93
2023/04/28 03:38:18;;;;;;;4.53;2.70;;;;;;;;;;5004685;28;20435;-93
2023/04/28 03:40:44;;;;;;;4.73;3.00;;;;;;;;;;5000045;28;20531;-94
2023/04/28 03:43:10;;;;;;;5.37;3.10;;;;;;;;;;4980800;28;20502;-94
2023/04/28 03:45:36;;;;;;;3.73;2.90;;;;;;;;;;5003170;28;20436;-94
2023/04/28 03:48:02;;;;;;;4.97;3.20;;;;;;;;;;5000593;28;20444;-92
2023/04/28 03:50:28;;;;;;;5.67;3.60;;;;;;;;;;4985828;28;20437;-94
2023/04/28 03:52:54;;;;;;;2.93;2.53;;;;;;;;;;4978979;28;20471;-93
2023/04/28 03:55:20;;;;;;;3.10;2.80;;;;;;;;;;4992877;28;20523;-92
2023/04/28 03:57:46;;;;;;;4.20;3.57;;;;;;;;;;5001670;28;20992;-91
2023/04/28 04:00:12;;;;;;;3.37;2.97;;;;;;;;;;4995584;28;20418;-92
2023/04/28 04:02:38;;;;;;;7.13;3.70;;;;;;;;;;4993736;28;20876;-92
2023/04/28 04:05:04;;;;;;;2.97;2.67;;;;;;;;;;4995711;28;20437;-92
2023/04/28 04:07:30;;;;;;;3.07;2.77;;;;;;;;;;5001877;28;20432;-91
2023/04/28 04:09:56;;;;;;;6.27;3.20;;;;;;;;;;4976975;28;20579;-93
2023/04/28 04:12:22;;;;;;;4.60;3.30;;;;;;;;;;4988301;28;20847;-91
2023/04/28 04:14:48;;;;;;;5.03;3.87;;;;;;;;;;5013957;28;20464;-92
2023/04/28 04:17:15;;;;;;;3.90;3.03;;;;;;;;;;5006951;28;20476;-90
2023/04/28 04:19:41;;;;;;;4.63;3.40;;;;;;;;;;4996896;28;21021;-93
2023/04/28 04:22:07;;;;;;;11.03;3.33;;;;;;;;;;5004585;28;20437;-92
2023/04/28 04:24:33;;;;;;;5.93;3.10;;;;;;;;;;5010791;28;20432;-93
2023/04/28 04:26:59;;;;;;;3.43;3.13;;;;;;;;;;5003640;28;20531;-90
2023/04/28 04:29:25;;;;;;;3.67;3.00;;;;;;;;;;5012733;28;20451;-92
2023/04/28 04:31:51;;;;;;;3.53;2.77;;;;;;;;;;4994587;28;20429;-94
2023/04/28 04:34:17;;;;;;;3.63;3.10;;;;;;;;;;4999302;28;20435;-93
2023/04/28 04:36:43;;;;;;;3.63;3.30;;;;;;;;;;4996669;28;20425;-93
2023/04/28 04:39:09;;;;;;;4.27;2.60;;;;;;;;;;5018790;28;20440;-92
2023/04/28 04:41:35;;;;;;;4.40;2.90;;;;;;;;;;4981877;28;20935;-92
2023/04/28 04:44:01;;;;;;;4.60;3.47;;;;;;;;;;4994471;28;20503;-92
2023/04/28 04:46:27;;;;;;;3.60;3.00;;;;;;;;;;4998132;28;20417;-93
2023/04/28 04:48:53;;;;;;;4.60;3.47;;;;;;;;;;4997140;28;20464;-93
2023/04/28 04:51:19;;;;;;;4.27;2.80;;;;;;;;;;5012766;28;20484;-94
2023/04/28 04:53:45;;;;;;;4.00;2.90;;;;;;;;;;4996714;28;20428;-91
2023/04/28 04:56:11;;;;;;;4.17;2.80;;;;;;;;;;4991972;28;20496;-91
2023/04/28 04:58:37;;;;;;;2.60;2.40;;;;;;;;;;4996168;28;20425;-91
2023/04/28 05:01:04;;;;;;;4.90;3.20;;;;;;;;;;4990561;28;20437;-90
2023/04/28 05:03:30;;;;;;;6.10;2.60;;;;;;;;;;4992845;28;20457;-90
2023/04/28 05:05:57;;;;;;;3.33;2.90;;;;;;;;;;4986538;28;20421;-90
2023/04/28 05:08:23;;;;;;;5.67;2.97;;;;;;;;;;4978255;28;20433;-91
2023/04/28 05:10:49;;;;;;;3.07;2.77;;;;;;;;;;4978050;28;20418;-92
2023/04/28 05:13:15;;;;;;;3.10;2.80;;;;;;;;;;4981157;28;20444;-91
2023/04/28 05:15:41;;;;;;;3.33;2.87;;;;;;;;;;5000637;28;20413;-92
2023/04/28 05:18:09;;;;;;;5.00;3.50;;;;;;;;;;4993577;28;20549;-91
2023/04/28 05:20:35;;;;;;;4.40;3.00;;;;;;;;;;4988372;28;20774;-91
2023/04/28 05:23:01;;;;;;;3.93;3.10;;;;;;;;;;5003999;28;20465;-91
2023/04/28 05:25:27;;;;;;;3.70;2.93;;;;;;;;;;5027794;28;20431;-91
2023/04/28 05:27:54;;;;;;;3.83;3.20;;;;;;;;;;4998812;28;20433;-91
2023/04/28 05:30:20;;;;;;;3.97;3.13;;;;;;;;;;4984118;28;20424;-91
2023/04/28 05:32:46;;;;;;;4.80;3.60;;;;;;;;;;4976060;28;20444;-91
2023/04/28 05:35:13;;;;;;;4.90;3.60;;;;;;;;;;4992168;28;20523;-90
2023/04/28 05:37:42;;;;;;;4.17;3.60;;;;;;;;;;4993723;28;20444;-90
2023/04/28 05:40:08;;;;;;;7.20;3.70;;;;;;;;;;4993578;28;20445;-91
2023/04/28 05:42:34;;;;;;;4.40;3.60;;;;;;;;;;4983498;28;20466;-93
2023/04/28 05:45:01;;;;;;;5.30;3.90;;;;;;;;;;5012471;28;20430;-92
2023/04/28 05:47:29;;;;;;;7.93;3.53;;;;;;;;;;4992812;28;20457;-91
2023/04/28 05:49:55;;;;;;;5.27;3.97;;;;;;;;;;4983776;28;20556;-92
2023/04/28 05:52:21;;;;;;;6.10;4.00;;;;;;;;;;4990619;28;20437;-92
2023/04/28 05:54:47;;;;;;;5.63;3.73;;;;;;;;;;4986466;28;20485;-92
2023/04/28 05:57:13;;;;;;;5.73;5.23;;;;;;;;;;4992570;28;20430;-92
2023/04/28 05:59:39;;;;;;;5.13;3.40;;;;;;;;;;5021364;28;20440;-94
2023/04/28 06:02:05;;;;;;;5.43;3.37;;;;;;;;;;4999224;28;20445;-93
2023/04/28 06:04:31;;;;;;;5.30;3.40;;;;;;;;;;5008611;28;21091;-91
2023/04/28 06:06:57;;;;;;;5.23;3.90;;;;;;;;;;4989539;28;20461;-92
2023/04/28 06:09:23;;;;;;;6.53;3.80;;;;;;;;;;4995432;28;20526;-90
2023/04/28 06:11:49;;;;;;;5.60;4.43;;;;;;;;;;4983016;28;20430;-94
2023/04/28 06:14:15;;;;;;;4.47;3.93;;;;;;;;;;5022019;28;20433;-92
2023/04/28 06:16:40;;;;;;;4.27;3.67;;;;;;;;;;4993063;28;20436;-90
2023/04/28 06:19:06;;;;;;;5.63;4.10;;;;;;;;;;5016213;28;20437;-92
2023/04/28 06:21:33;;;;;;;6.20;4.13;;;;;;;;;;4983864;28;20433;-92
2023/04/28 06:23:59;;;;;;;5.20;4.03;;;;;;;;;;4987967;28;20909;-89
2023/04/28 06:26:25;;;;;;;7.80;4.40;;;;;;;;;;4978069;28;20495;-91
2023/04/28 06:28:51;;;;;;;4.20;3.77;;;;;;;;;;4990749;28;20423;-92
2023/04/28 06:31:17;;;;;;;5.40;3.97;;;;;;;;;;4988848;28;20496;-90
2023/04/28 06:33:43;;;;;;;5.73;4.07;;;;;;;;;;5005184;28;20456;-92
2023/04/28 06:36:12;;;;;;;4.40;3.63;;;;;;;;;;4998016;28;20429;-91
2023/04/28 06:38:39;;;;;;;4.20;3.43;;;;;;;;;;4978591;28;20449;-93
2023/04/28 06:41:05;;;;;;;5.70;3.93;;;;;;;;;;5013120;28;20457;-93
2023/04/28 06:43:32;;;;;;;5.57;4.50;;;;;;;;;;5016619;28;20456;-92
2023/04/28 06:45:58;;;;;;;5.60;4.20;;;;;;;;;;5010793;28;20437;-92
2023/04/28 06:48:25;;;;;;;4.57;3.43;;;;;;;;;;4997169;28;20499;-92
2023/04/28 06:50:51;;;;;;;4.40;3.43;;;;;;;;;;4988438;28;20525;-92
2023/04/28 06:53:17;;;;;;;5.70;3.70;;;;;;;;;;5014956;28;20456;-92
2023/04/28 06:55:43;;;;;;;10.00;5.13;;;;;;;;;;4997488;28;20424;-93
2023/04/28 06:58:09;;;;;;;6.27;4.50;;;;;;;;;;4979572;28;20431;-89
2023/04/28 07:00:35;;;;;;;6.10;4.40;;;;;;;;;;4982714;28;20452;-89
2023/04/28 07:03:01;;;;;;;4.30;3.07;;;;;;;;;;5000528;28;20698;-90
2023/04/28 07:05:27;;;;;;;6.33;3.77;;;;;;;;;;4993222;28;20503;-91
2023/04/28 07:07:53;;;;;;;5.03;4.10;;;;;;;;;;4999862;28;20436;-91
2023/04/28 07:10:19;;;;;;;7.33;4.10;;;;;;;;;;5014656;28;20434;-90
2023/04/28 07:12:45;;;;;;;4.63;3.97;;;;;;;;;;4993578;28;20428;-90
2023/04/28 07:15:11;;;;;;;5.77;3.40;;;;;;;;;;4989485;28;20444;-89
2023/04/28 07:17:40;;;;;;;4.60;4.10;;;;;;;;;;4971594;28;21007;-90
2023/04/28 07:20:06;;;;;;;5.60;3.40;;;;;;;;;;4992347;28;20472;-90
2023/04/28 07:22:34;;;;;;;5.33;3.80;;;;;;;;;;4993645;28;20508;-90
2023/04/28 07:25:00;;;;;;;4.00;3.00;;;;;;;;;;4992357;28;20528;-91
2023/04/28 07:27:26;;;;;;;7.00;3.23;;;;;;;;;;5013653;28;20437;-91
2023/04/28 07:29:52;;;;;;;4.73;3.87;;;;;;;;;;5011150;28;20452;-91
2023/04/28 07:32:18;;;;;;;6.87;2.67;;;;;;;;;;4977329;28;20433;-91
2023/04/28 07:34:44;;;;;;;6.10;3.13;;;;;;;;;;4995639;28;21121;-92
2023/04/28 07:37:10;;;;;;;3.07;2.80;;;;;;;;;;5017518;28;20432;-91
2023/04/28 07:39:38;;;;;;;4.80;3.27;;;;;;;;;;4995917;28;20456;-92
2023/04/28 07:42:04;;;;;;;3.37;3.03;;;;;;;;;;5019599;28;20440;-91
2023/04/28 07:44:30;;;;;;;4.60;3.13;;;;;;;;;;5006340;28;20439;-91
2023/04/28 07:46:56;;;;;;;4.90;2.80;;;;;;;;;;4983059;28;20440;-89
2023/04/28 07:49:22;;;;;;;4.00;3.60;;;;;;;;;;5014546;28;20805;-90
2023/04/28 07:51:48;;;;;;;3.07;2.40;;;;;;;;;;4992910;28;20475;-90
2023/04/28 07:54:14;;;;;;;2.83;2.50;;;;;;;;;;4993029;28;20429;-89
2023/04/28 07:56:40;;;;;;;4.83;2.57;;;;;;;;;;5007970;28;20434;-89
2023/04/28 07:59:06;;;;;;;4.53;2.60;;;;;;;;;;4975520;28;20425;-88
2023/04/28 08:01:32;;;;;;;5.73;2.80;;;;;;;;;;4993769;28;20441;-89
2023/04/28 08:03:58;;;;;;;4.47;3.27;;;;;;;;;;5021206;28;20457;-89
2023/04/28 08:06:24;;;;;;;4.33;3.27;;;;;;;;;;4994551;28;20456;-89
2023/04/28 08:08:50;;;;;;;4.10;3.13;;;;;;;;;;4979140;28;20444;-89
2023/04/28 08:11:16;;;;;;;4.83;4.33;;;;;;;;;;5004822;28;20456;-89
2023/04/28 08:13:42;;;;;;;6.13;3.67;;;;;;;;;;5005271;28;20516;-89
2023/04/28 08:16:08;;;;;;;5.60;3.83;;;;;;;;;;5009275;28;20875;-89
2023/04/28 08:18:34;;;;;;;5.50;3.33;;;;;;;;;;4995231;28;20416;-90
2023/04/28 08:21:00;;;;;;;5.10;3.80;;;;;;;;;;4996042;28;20964;-88
2023/04/28 08:23:29;;;;;;;5.03;3.83;;;;;;;;;;4993063;28;20462;-87
2023/04/28 08:25:55;;;;;;;4.03;3.57;;;;;;;;;;5013889;28;20441;-88
2023/04/28 08:28:21;;;;;;;3.83;3.50;;;;;;;;;;5010789;28;20437;-90
2023/04/28 08:30:51;;;;;;;6.17;4.03;;;;;;;;;;4980824;28;20432;-91
2023/04/28 08:33:17;;;;;;;5.80;3.63;;;;;;;;;;4995790;28;20482;-90
2023/04/28 08:35:43;;;;;;;5.17;3.80;;;;;;;;;;5013174;28;20444;-90
2023/04/28 08:38:12;;;;;;;4.37;3.93;;;;;;;;;;5010957;28;20452;-91
2023/04/28 08:40:39;;;;;;;6.60;4.27;;;;;;;;;;5014019;28;20452;-91
2023/04/28 08:43:05;;;;;;;5.00;4.30;;;;;;;;;;4978397;28;20464;-91
2023/04/28 08:45:32;;;;;;;8.47;5.30;;;;;;;;;;4988921;28;20440;-90
2023/04/28 08:47:59;;;;;;;4.43;3.73;;;;;;;;;;5010271;28;20441;-91
2023/04/28 08:50:25;;;;;;;4.97;4.03;;;;;;;;;;4993919;28;20441;-90
2023/04/28 08:52:52;;;;;;;8.83;4.50;;;;;;;;;;4977023;28;20455;-91
2023/04/28 08:55:18;;;;;;;4.87;3.70;;;;;;;;;;4995060;28;20735;-92
2023/04/28 08:57:44;;;;;;;7.27;5.10;;;;;;;;;;4990610;28;20441;-89
2023/04/28 09:00:10;;;;;;;6.47;5.63;;;;;;;;;;4993003;28;20441;-91
2023/04/28 09:02:37;;;;;;;8.40;7.00;;;;;;;;;;4995804;28;20465;-91
2023/04/28 09:05:09;;;;;;;7.50;6.17;;;;;;;;;;4995246;28;20483;-91
2023/04/28 09:07:35;;;;;;;8.03;6.63;;;;;;;;;;4994450;28;20482;-91
2023/04/28 09:10:20;;;;;;;7.40;6.37;;;;;;;;;;4974845;28;20445;-93
2023/04/28 09:12:47;;;;;;;7.40;6.50;;;;;;;;;;4989652;28;20492;-88
2023/04/28 09:15:26;;;;;;;6.40;5.80;;;;;;;;;;4994924;28;20447;-89
2023/04/28 09:17:52;;;;;;;6.03;5.50;;;;;;;;;;4975623;28;20418;-88
2023/04/28 09:20:28;;;;;;;13.87;6.77;;;;;;;;;;4990738;28;20494;-90
2023/04/28 09:22:55;;;;;;;6.33;5.23;;;;;;;;;;4976954;28;20468;-89
2023/04/28 09:25:21;;;;;;;7.27;5.20;;;;;;;;;;4992859;28;20436;-89
2023/04/28 09:27:48;;;;;;;6.30;5.07;;;;;;;;;;4979173;28;21334;-89
2023/04/28 09:30:14;;;;;;;5.47;4.57;;;;;;;;;;5005347;28;20448;-90
2023/04/28 09:32:40;;;;;;;5.63;4.40;;;;;;;;;;4995193;28;20979;-90
2023/04/28 09:35:06;;;;;;;5.67;4.47;;;;;;;;;;4991722;28;20444;-89
2023/04/28 09:37:34;;;;;;;4.90;4.23;;;;;;;;;;4976498;28;20437;-89
2023/04/28 09:40:19;;;;;;;5.73;4.60;;;;;;;;;;4971111;28;20452;-88
2023/04/28 09:42:45;;;;;;;6.03;4.10;;;;;;;;;;4990871;28;20515;-89
2023/04/28 09:45:12;;;;;;;5.20;4.13;;;;;;;;;;4976438;28;20442;-89
2023/04/28 09:47:43;;;;;;;5.10;3.40;;;;;;;;;;4995304;28;20487;-90
2023/04/28 09:50:13;;;;;;;4.70;3.10;;;;;;;;;;4994327;28;21003;-91
2023/04/28 09:52:40;;;;;;;4.23;3.83;;;;;;;;;;4977339;28;20441;-90
2023/04/28 09:55:07;;;;;;;2.97;2.50;;;;;;;;;;4973578;28;20449;-88
2023/04/28 09:57:34;;;;;;;5.50;3.20;;;;;;;;;;4991446;28;20432;-88
2023/04/28 10:00:00;;;;;;;4.03;2.83;;;;;;;;;;4989140;28;20429;-88
2023/04/28 10:02:26;;;;;;;3.43;2.87;;;;;;;;;;4974478;28;20441;-89
2023/04/28 10:04:52;;;;;;;3.53;2.30;;;;;;;;;;4994228;28;20445;-89
2023/04/28 10:07:19;;;;;;;8.30;2.60;;;;;;;;;;4975139;28;20503;-90
2023/04/28 10:09:52;;;;;;;5.70;1.93;;;;;;;;;;4974057;28;20956;-89
2023/04/28 10:12:18;;;;;;;2.23;1.63;;;;;;;;;;4981374;28;20434;-90
2023/04/28 10:14:45;;;;;;;1.50;1.20;;;;;;;;;;4990913;28;21020;-88
2023/04/28 10:17:11;;;;;;;1.70;1.27;;;;;;;;;;4990831;28;20434;-89
2023/04/28 10:19:37;;;;;;;2.13;1.63;;;;;;;;;;5013237;28;20436;-90
2023/04/28 10:22:15;;;;;;;1.57;1.23;;;;;;;;;;4987150;28;20444;-90
2023/04/28 10:25:00;;;;;;;3.13;1.10;;;;;;;;;;5002356;28;20452;-90
2023/04/28 10:27:30;;;;;;;1.50;1.03;;;;;;;;;;5013584;28;20459;-89
2023/04/28 10:30:16;;;;;;;2.70;1.07;;;;;;;;;;4988838;28;20436;-89
2023/04/28 10:32:42;;;;;;;1.40;1.00;;;;;;;;;;4989545;28;20443;-90
2023/04/28 10:35:26;;;;;;;1.67;1.00;;;;;;;;;;4989986;28;20524;-90
2023/04/28 10:38:04;;;;;;;2.97;1.30;;;;;;;;;;5008320;28;20429;-90
2023/04/28 10:40:33;;;;;;;1.70;1.20;;;;;;;;;;4972518;28;20452;-91
2023/04/28 10:42:59;;;;;;;1.90;1.30;;;;;;;;;;4975511;28;20461;-91
2023/04/28 10:45:44;;;;;;;4.00;1.10;;;;;;;;;;5022432;28;20444;-91
2023/04/28 10:48:10;;;;;;;1.73;1.20;;;;;;;;;;4987127;28;20503;-89
2023/04/28 10:50:38;;;;;;;1.70;1.50;;;;;;;;;;5006677;28;20448;-92
2023/04/28 10:53:04;;;;;;;1.30;0.73;;;;;;;;;;5005231;28;20865;-91
2023/04/28 10:55:31;;;;;;;1.30;0.90;;;;;;;;;;4989581;28;20433;-91
2023/04/28 10:58:16;;;;;;;2.57;1.37;;;;;;;;;;5009054;28;20441;-95
2023/04/28 11:00:44;;;;;;;1.30;0.70;;;;;;;;;;4988412;28;20438;-91
2023/04/28 11:03:30;;;;;;;4.20;1.13;;;;;;;;;;5017861;28;20464;-92
2023/04/28 11:06:15;;;;;;;6.50;1.00;;;;;;;;;;4997818;28;20413;-90
2023/04/28 11:08:41;;;;;;;1.50;0.80;;;;;;;;;;4991826;28;20427;-91
2023/04/28 11:11:10;;;;;;;2.57;0.80;;;;;;;;;;4992293;28;20449;-91
2023/04/28 11:13:53;;;;;;;1.80;0.87;;;;;;;;;;4998190;28;20444;-90
2023/04/28 11:16:24;;;;;;;1.10;0.57;;;;;;;;;;4990406;28;20491;-93
2023/04/28 11:18:51;;;;;;;1.40;0.90;;;;;;;;;;5012192;28;20428;-91
2023/04/28 11:21:17;;;;;;;1.20;0.83;;;;;;;;;;4994004;28;20493;-95
2023/04/28 11:23:43;;;;;;;1.00;0.60;;;;;;;;;;5008920;28;20507;-91
2023/04/28 11:26:12;;;;;;;1.67;0.80;;;;;;;;;;4987788;28;21020;-90
2023/04/28 11:28:54;;;;;;;1.30;0.70;;;;;;;;;;4997590;28;20475;-92
2023/04/28 11:31:24;;;;;;;2.20;0.70;;;;;;;;;;4993020;28;20446;-90
2023/04/28 11:33:51;;;;;;;1.57;0.80;;;;;;;;;;4982804;28;20498;-90
2023/04/28 11:36:24;;;;;;;1.53;1.00;;;;;;;;;;4994939;28;20456;-91
2023/04/28 11:38:50;;;;;;;1.20;0.80;;;;;;;;;;4987155;28;20422;-93
2023/04/28 11:41:16;;;;;;;1.70;0.73;;;;;;;;;;4980182;28;20460;-89
2023/04/28 11:43:42;;;;;;;1.20;0.60;;;;;;;;;;4992400;28;20531;-90
2023/04/28 11:46:08;;;;;;;1.20;0.53;;;;;;;;;;4997683;28;20444;-91
2023/04/28 11:48:34;;;;;;;1.40;0.63;;;;;;;;;;5004002;28;20437;-90
2023/04/28 11:51:00;;;;;;;1.30;0.70;;;;;;;;;;4993632;28;20921;-94
2023/04/28 11:53:43;;;;;;;1.10;0.60;;;;;;;;;;5007165;28;20512;-89
2023/04/28 11:56:10;;;;;;;1.40;0.97;;;;;;;;;;4976351;28;20445;-89
2023/04/28 11:58:36;;;;;;;2.17;0.70;;;;;;;;;;4988700;28;20429;-89
2023/04/28 12:01:06;;;;;;;1.40;0.73;;;;;;;;;;4996013;28;20874;-89
2023/04/28 12:03:32;;;;;;;1.70;1.00;;;;;;;;;;4988719;28;20995;-90
2023/04/28 12:05:58;;;;;;;1.70;0.70;;;;;;;;;;5003600;28;20495;-89
2023/04/28 12:08:30;;;;;;;2.40;1.00;;;;;;;;;;4992650;28;20437;-90
2023/04/28 12:11:09;;;;;;;2.03;0.90;;;;;;;;;;4998385;28;20468;-89
2023/04/28 12:13:38;;;;;;;1.63;0.80;;;;;;;;;;4997037;28;20449;-89
2023/04/28 12:16:05;;;;;;;1.23;0.80;;;;;;;;;;5012050;28;20429;-89
2023/04/28 12:18:31;;;;;;;3.20;1.10;;;;;;;;;;5009430;28;20424;-89
2023/04/28 12:21:03;;;;;;;1.30;0.80;;;;;;;;;;5004885;28;20551;-89
2023/04/28 12:23:32;;;;;;;1.33;0.80;;;;;;;;;;4992326;28;21030;-89
2023/04/28 12:25:58;;;;;;;2.10;0.80;;;;;;;;;;4976485;28;20421;-89
2023/04/28 12:28:24;;;;;;;1.50;1.00;;;;;;;;;;4981348;28;20432;-87
2023/04/28 12:30:51;;;;;;;2.93;0.90;;;;;;;;;;4980127;28;20440;-88
2023/04/28 12:33:26;;;;;;;2.20;0.77;;;;;;;;;;4994034;28;20416;-87
2023/04/28 12:35:55;;;;;;;1.40;0.90;;;;;;;;;;4990240;28;20445;-88
2023/04/28 12:38:22;;;;;;;1.97;1.03;;;;;;;;;;4994555;28;20417;-88
2023/04/28 12:40:51;;;;;;;1.50;1.07;;;;;;;;;;5007495;28;20886;-88
2023/04/28 12:43:17;;;;;;;1.60;0.80;;;;;;;;;;5001250;28;20585;-89
2023/04/28 12:45:43;;;;;;;1.43;0.77;;;;;;;;;;5005635;28;20438;-88
2023/04/28 12:48:12;;;;;;;2.17;1.00;;;;;;;;;;4992782;28;20488;-92
2023/04/28 12:50:41;;;;;;;1.30;0.70;;;;;;;;;;5004648;28;20421;-92
2023/04/28 12:53:07;;;;;;;3.77;0.87;;;;;;;;;;4980932;28;20483;-91
2023/04/28 12:55:33;;;;;;;2.17;1.20;;;;;;;;;;4986709;28;20430;-89
2023/04/28 12:57:59;;;;;;;3.77;1.47;;;;;;;;;;4995922;28;20479;-89
2023/04/28 13:00:25;;;;;;;1.93;1.17;;;;;;;;;;4988870;28;20433;-93
2023/04/28 13:02:51;;;;;;;2.03;1.37;;;;;;;;;;4993560;28;20616;-88
2023/04/28 13:05:18;;;;;;;1.77;1.33;;;;;;;;;;4987411;28;20444;-89
2023/04/28 13:07:44;;;;;;;1.97;1.50;;;;;;;;;;4990627;28;20417;-89
2023/04/28 13:10:11;;;;;;;2.10;1.20;;;;;;;;;;4995655;28;20437;-89
2023/04/28 13:12:37;;;;;;;2.30;1.37;;;;;;;;;;4977478;28;20860;-89
2023/04/28 13:15:03;;;;;;;1.70;1.07;;;;;;;;;;5011036;28;20436;-91
2023/04/28 13:17:29;;;;;;;3.00;1.23;;;;;;;;;;4993526;28;20432;-89
2023/04/28 13:19:55;;;;;;;1.60;1.00;;;;;;;;;;5001301;28;20409;-90
2023/04/28 13:22:21;;;;;;;1.47;1.07;;;;;;;;;;4992065;28;20429;-90
2023/04/28 13:24:49;;;;;;;1.40;0.90;;;;;;;;;;5011557;28;20505;-91
2023/04/28 13:27:15;;;;;;;1.90;1.10;;;;;;;;;;4993304;28;21344;-90
2023/04/28 13:29:41;;;;;;;1.60;1.20;;;;;;;;;;4993133;28;20448;-91
2023/04/28 13:32:07;;;;;;;1.80;1.10;;;;;;;;;;5001837;28;20512;-91
2023/04/28 13:34:36;;;;;;;1.63;1.07;;;;;;;;;;5013225;28;20796;-89
2023/04/28 13:37:02;;;;;;;2.67;1.50;;;;;;;;;;5011917;28;21071;-89
2023/04/28 13:39:28;;;;;;;2.23;1.53;;;;;;;;;;5008415;28;20811;-90
2023/04/28 13:41:55;;;;;;;7.70;1.93;;;;;;;;;;4976979;28;20445;-88
2023/04/28 13:44:21;;;;;;;1.70;1.20;;;;;;;;;;4992832;28;21194;-88
2023/04/28 13:46:47;;;;;;;3.00;2.10;;;;;;;;;;4999289;28;20441;-88
2023/04/28 13:49:13;;;;;;;2.13;1.60;;;;;;;;;;5009956;28;21188;-88
2023/04/28 13:51:39;;;;;;;1.87;1.20;;;;;;;;;;4990194;28;20442;-90
2023/04/28 13:54:10;;;;;;;7.73;1.80;;;;;;;;;;4992385;28;20433;-90
2023/04/28 13:56:36;;;;;;;2.00;1.60;;;;;;;;;;4993679;28;20436;-90
2023/04/28 13:59:02;;;;;;;2.27;1.20;;;;;;;;;;4993085;28;20438;-88
2023/04/28 14:01:28;;;;;;;3.10;1.40;;;;;;;;;;4982749;28;20429;-91
2023/04/28 14:03:54;;;;;;;1.97;1.53;;;;;;;;;;4965066;28;20514;-88
2023/04/28 14:06:20;;;;;;;2.87;1.57;;;;;;;;;;4978440;28;20431;-89
2023/04/28 14:08:46;;;;;;;1.93;1.40;;;;;;;;;;4962853;28;20445;-89
2023/04/28 14:11:12;;;;;;;1.83;1.40;;;;;;;;;;4970600;28;20441;-89
2023/04/28 14:13:38;;;;;;;4.63;1.80;;;;;;;;;;4991194;28;20445;-90
2023/04/28 14:16:05;;;;;;;3.90;1.70;;;;;;;;;;4977227;28;20433;-90
2023/04/28 14:18:32;;;;;;;3.40;1.53;;;;;;;;;;4988775;28;20437;-89
2023/04/28 14:20:58;;;;;;;2.23;1.70;;;;;;;;;;4995507;28;20535;-88
2023/04/28 14:23:25;;;;;;;2.00;1.80;;;;;;;;;;4984284;28;20460;-88
2023/04/28 14:25:57;;;;;;;2.40;1.73;;;;;;;;;;4997426;28;20421;-88
2023/04/28 14:28:23;;;;;;;3.27;2.53;;;;;;;;;;4971784;28;20467;-86
2023/04/28 14:30:49;;;;;;;3.30;2.40;;;;;;;;;;4972829;28;20437;-89
2023/04/28 14:33:15;;;;;;;3.03;2.60;;;;;;;;;;4986340;28;20441;-88
2023/04/28 14:35:41;;;;;;;4.17;2.10;;;;;;;;;;4981400;28;20501;-88
2023/04/28 14:38:07;;;;;;;2.00;1.13;;;;;;;;;;4986909;28;20466;-89
2023/04/28 14:40:33;;;;;;;10.37;7.90;;;;;;;;;;4992069;28;20448;-89
2023/04/28 14:43:00;;;;;;;3.43;2.50;;;;;;;;;;4988778;28;20465;-88